createdAt,value
2023-04-28T00:01:47.008Z,6.07
2023-04-28T00:04:14.363Z,6.01
2023-04-28T00:06:41.658Z,5.98
2023-04-28T00:09:12.021Z,5.93
2023-04-28T00:11:39.061Z,5.85
2023-04-28T00:14:06.111Z,5.80
2023-04-28T00:16:34.526Z,5.82
2023-04-28T00:19:01.612Z,5.83
2023-04-28T00:21:28.796Z,5.82
2023-04-28T00:23:56.301Z,5.80
2023-04-28T00:26:23.329Z,5.84
2023-04-28T00:28:50.807Z,5.78
2023-04-28T00:31:17.840Z,5.76
2023-04-28T00:33:46.358Z,5.71
2023-04-28T00:36:13.534Z,5.71
2023-04-28T00:38:40.630Z,5.67
2023-04-28T00:41:09.874Z,5.62
2023-04-28T00:43:47.280Z,5.63
2023-04-28T00:46:21.685Z,5.61
2023-04-28T00:48:50.626Z,5.48
2023-04-28T00:51:17.895Z,5.48
2023-04-28T00:53:48.798Z,5.49
2023-04-28T00:56:15.788Z,5.46
2023-04-28T00:58:43.090Z,5.37
2023-04-28T01:01:10.699Z,5.40
2023-04-28T01:03:40.193Z,5.37
2023-04-28T01:06:10.088Z,5.29
2023-04-28T01:08:39.298Z,5.28
2023-04-28T01:11:14.283Z,5.26
2023-04-28T01:14:00.399Z,5.23
2023-04-28T01:16:32.580Z,5.24
2023-04-28T01:19:00.703Z,5.20
2023-04-28T01:21:32.590Z,5.14
2023-04-28T01:24:08.195Z,5.17
2023-04-28T01:26:35.142Z,5.12
2023-04-28T01:29:02.128Z,5.14
2023-04-28T01:31:31.246Z,5.14
2023-04-28T01:33:58.535Z,5.09
2023-04-28T01:36:27.494Z,5.11
2023-04-28T01:38:55.141Z,5.15
2023-04-28T01:41:23.562Z,5.15
2023-04-28T01:43:50.942Z,5.14
2023-04-28T01:46:18.457Z,5.08
2023-04-28T01:48:45.920Z,4.99
2023-04-28T01:51:13.111Z,5.03
2023-04-28T01:53:40.134Z,5.02
2023-04-28T01:56:07.064Z,5.00
2023-04-28T01:58:36.550Z,4.96
2023-04-28T02:01:03.622Z,4.98
2023-04-28T02:03:31.033Z,4.99
2023-04-28T02:05:58.409Z,4.93
2023-04-28T02:08:25.580Z,4.93
2023-04-28T02:10:52.680Z,4.92
2023-04-28T02:13:21.109Z,4.85
2023-04-28T02:15:49.628Z,4.85
2023-04-28T02:18:16.586Z,4.82
2023-04-28T02:20:43.512Z,4.83
2023-04-28T02:23:10.634Z,4.83
2023-04-28T02:25:37.747Z,4.80
2023-04-28T02:28:04.833Z,4.78
2023-04-28T02:30:34.796Z,4.78
2023-04-28T02:33:03.394Z,4.78
2023-04-28T02:35:30.412Z,4.75
2023-04-28T02:37:57.848Z,4.80
2023-04-28T02:40:24.825Z,4.77
2023-04-28T02:42:52.428Z,4.77
2023-04-28T02:45:19.459Z,4.71
2023-04-28T02:47:46.620Z,4.68
2023-04-28T02:50:14.977Z,4.67
2023-04-28T02:52:41.995Z,4.65
2023-04-28T02:55:09.427Z,4.66
2023-04-28T02:57:36.355Z,4.60
2023-04-28T03:00:05.522Z,4.66
2023-04-28T03:02:41.561Z,4.69
2023-04-28T03:05:09.612Z,4.71
2023-04-28T03:07:38.107Z,4.75
2023-04-28T03:10:06.034Z,4.65
2023-04-28T03:12:33.105Z,4.58
2023-04-28T03:15:01.439Z,4.63
2023-04-28T03:17:28.467Z,4.64
2023-04-28T03:19:55.596Z,4.66
2023-04-28T03:22:23.500Z,4.63
2023-04-28T03:24:51.963Z,4.61
2023-04-28T03:27:19.415Z,4.66
2023-04-28T03:29:46.554Z,4.63
2023-04-28T03:32:13.942Z,4.62
2023-04-28T03:34:41.146Z,4.64
2023-04-28T03:37:08.258Z,4.61
2023-04-28T03:39:35.289Z,4.64
2023-04-28T03:42:04.083Z,4.65
2023-04-28T03:44:37.057Z,4.67
2023-04-28T03:47:05.982Z,4.70
2023-04-28T03:49:33.117Z,4.72
2023-04-28T03:52:00.273Z,4.77
2023-04-28T03:54:27.302Z,4.74
2023-04-28T03:56:54.358Z,4.78
2023-04-28T03:59:22.710Z,4.80
2023-04-28T04:01:49.843Z,4.82
2023-04-28T04:04:17.754Z,4.88
2023-04-28T04:06:45.505Z,4.96
2023-04-28T04:09:13.333Z,5.02
2023-04-28T04:11:41.015Z,5.04
2023-04-28T04:14:08.076Z,5.14
2023-04-28T04:16:37.369Z,5.13
2023-04-28T04:19:05.238Z,5.15
2023-04-28T04:21:39.818Z,5.28
2023-04-28T04:24:07.519Z,5.24
2023-04-28T04:26:34.494Z,5.26
2023-04-28T04:29:02.228Z,5.35
2023-04-28T04:31:29.203Z,5.36
2023-04-28T04:33:58.443Z,5.41
2023-04-28T04:36:25.577Z,5.48
2023-04-28T04:38:54.356Z,5.55
2023-04-28T04:41:23.635Z,5.60
2023-04-28T04:43:58.276Z,5.65
2023-04-28T04:46:30.271Z,5.76
2023-04-28T04:48:58.619Z,5.89
2023-04-28T04:51:25.857Z,5.90
2023-04-28T04:53:52.783Z,5.96
2023-04-28T04:56:19.753Z,6.01
2023-04-28T04:58:46.815Z,6.08
2023-04-28T05:01:32.341Z,6.07
2023-04-28T05:04:01.162Z,6.15
2023-04-28T05:06:28.214Z,6.16
2023-04-28T05:08:58.322Z,6.21
2023-04-28T05:11:26.150Z,6.30
2023-04-28T05:13:53.262Z,6.35
2023-04-28T05:16:20.580Z,6.34
2023-04-28T05:19:07.406Z,6.38
2023-04-28T05:21:34.526Z,6.38
2023-04-28T05:24:02.614Z,6.41
2023-04-28T05:26:30.006Z,6.39
2023-04-28T05:29:02.772Z,6.47
2023-04-28T05:31:29.904Z,6.50
2023-04-28T05:33:57.107Z,6.57
2023-04-28T05:36:25.617Z,6.72
2023-04-28T05:38:52.646Z,6.80
2023-04-28T05:41:19.957Z,6.82
2023-04-28T05:43:47.787Z,6.88
2023-04-28T05:46:29.286Z,6.88
2023-04-28T05:48:58.538Z,6.96
2023-04-28T05:51:27.360Z,6.94
2023-04-28T05:53:54.382Z,7.07
2023-04-28T05:56:21.728Z,7.19
2023-04-28T05:58:50.605Z,7.21
2023-04-28T06:01:17.532Z,7.23
2023-04-28T06:03:45.509Z,7.21
2023-04-28T06:06:13.313Z,7.36
2023-04-28T06:08:42.157Z,7.45
2023-04-28T06:11:09.316Z,7.45
2023-04-28T06:13:36.614Z,7.51
2023-04-28T06:16:04.580Z,7.60
2023-04-28T06:18:34.306Z,7.69
2023-04-28T06:21:02.968Z,7.81
2023-04-28T06:23:29.934Z,7.91
2023-04-28T06:25:58.300Z,7.99
2023-04-28T06:28:25.270Z,7.99
2023-04-28T06:30:53.541Z,8.12
2023-04-28T06:33:20.937Z,8.31
2023-04-28T06:35:47.969Z,8.34
2023-04-28T06:38:16.243Z,8.41
2023-04-28T06:40:43.236Z,8.47
2023-04-28T06:43:11.917Z,8.46
2023-04-28T06:45:50.796Z,8.53
2023-04-28T06:48:17.829Z,8.68
2023-04-28T06:50:44.770Z,8.82
2023-04-28T06:53:11.965Z,8.89
2023-04-28T06:55:38.946Z,9.02
2023-04-28T06:58:05.925Z,9.08
2023-04-28T07:00:35.573Z,9.02
2023-04-28T07:03:02.851Z,9.07
2023-04-28T07:05:30.137Z,9.12
2023-04-28T07:07:57.087Z,9.31
2023-04-28T07:10:24.052Z,9.39
2023-04-28T07:12:54.506Z,9.40
2023-04-28T07:15:21.746Z,9.48
2023-04-28T07:17:50.145Z,9.71
2023-04-28T07:20:17.191Z,9.85
2023-04-28T07:22:44.152Z,9.97
2023-04-28T07:25:11.463Z,10.05
2023-04-28T07:27:38.625Z,10.20
2023-04-28T07:30:15.228Z,10.35
2023-04-28T07:32:46.020Z,10.36
2023-04-28T07:35:14.733Z,10.51
2023-04-28T07:37:41.716Z,10.74
2023-04-28T07:40:09.407Z,10.86
2023-04-28T07:42:36.325Z,10.92
2023-04-28T07:45:04.281Z,10.99
2023-04-28T07:47:31.494Z,11.15
2023-04-28T07:50:00.708Z,11.29
2023-04-28T07:52:29.043Z,11.42
2023-04-28T07:54:56.271Z,11.49
2023-04-28T07:57:23.256Z,11.63
2023-04-28T07:59:50.671Z,11.74
2023-04-28T08:02:17.656Z,11.86
2023-04-28T08:04:44.735Z,12.10
2023-04-28T08:07:12.165Z,12.27
2023-04-28T08:09:42.976Z,12.46
2023-04-28T08:12:10.183Z,12.61
2023-04-28T08:14:37.327Z,12.76
2023-04-28T08:17:04.384Z,12.85
2023-04-28T08:19:31.360Z,13.10
2023-04-28T08:22:00.100Z,13.23
2023-04-28T08:24:30.339Z,13.28
2023-04-28T08:26:58.786Z,13.43
2023-04-28T08:29:26.151Z,13.52
2023-04-28T08:31:53.390Z,13.67
2023-04-28T08:34:21.107Z,13.85
2023-04-28T08:36:48.342Z,14.02
2023-04-28T08:39:16.032Z,14.11
2023-04-28T08:41:43.090Z,14.29
2023-04-28T08:44:12.101Z,14.42
2023-04-28T08:46:41.642Z,14.35
2023-04-28T08:49:13.664Z,14.24
2023-04-28T08:51:45.315Z,14.49
2023-04-28T08:54:25.266Z,14.78
2023-04-28T08:56:54.684Z,14.99
2023-04-28T08:59:22.974Z,15.17
2023-04-28T09:01:50.329Z,15.13
2023-04-28T09:04:18.337Z,15.28
2023-04-28T09:06:49.150Z,15.47
2023-04-28T09:09:20.484Z,15.51
2023-04-28T09:11:55.733Z,15.28
2023-04-28T09:14:24.624Z,15.37
2023-04-28T09:16:52.183Z,15.53
2023-04-28T09:19:19.648Z,15.84
2023-04-28T09:21:52.035Z,15.89
2023-04-28T09:24:29.870Z,16.05
2023-04-28T09:26:56.950Z,16.35
2023-04-28T09:29:25.307Z,16.59
2023-04-28T09:31:53.470Z,16.66
2023-04-28T09:34:20.905Z,16.80
2023-04-28T09:36:48.220Z,16.96
2023-04-28T09:39:15.264Z,17.12
2023-04-28T09:41:43.404Z,17.26
2023-04-28T09:44:10.829Z,17.23
2023-04-28T09:46:39.507Z,17.27
2023-04-28T09:49:06.524Z,17.48
2023-04-28T09:51:34.715Z,17.54
2023-04-28T09:54:02.709Z,17.48
2023-04-28T09:56:30.754Z,17.53
2023-04-28T09:58:58.375Z,17.69
2023-04-28T10:01:26.217Z,17.99
2023-04-28T10:03:55.200Z,18.27
2023-04-28T10:06:22.993Z,18.44
2023-04-28T10:08:52.095Z,18.58
2023-04-28T10:11:19.190Z,18.72
2023-04-28T10:13:46.432Z,18.79
2023-04-28T10:16:14.830Z,18.59
2023-04-28T10:18:42.198Z,18.71
2023-04-28T10:21:11.946Z,18.94
2023-04-28T10:24:14.298Z,19.04
2023-04-28T10:27:04.350Z,19.24
2023-04-28T10:29:35.833Z,19.32
2023-04-28T10:32:19.540Z,19.32
2023-04-28T10:34:47.246Z,19.35
2023-04-28T10:37:15.993Z,19.49
2023-04-28T10:40:16.385Z,19.43
2023-04-28T10:42:53.227Z,19.38
2023-04-28T10:45:56.753Z,19.12
2023-04-28T10:48:54.247Z,19.48
2023-04-28T10:51:28.994Z,19.65
2023-04-28T10:54:19.695Z,19.62
2023-04-28T10:57:20.070Z,19.77
2023-04-28T10:59:47.880Z,20.03
2023-04-28T11:02:43.864Z,20.21
2023-04-28T11:05:13.953Z,20.38
2023-04-28T11:07:41.000Z,20.44
2023-04-28T11:10:09.571Z,20.40
2023-04-28T11:12:36.578Z,20.50
2023-04-28T11:15:14.031Z,20.48
2023-04-28T11:17:42.204Z,20.20
2023-04-28T11:20:13.371Z,20.19
2023-04-28T11:22:40.880Z,20.37
2023-04-28T11:25:09.875Z,20.28
2023-04-28T11:27:37.526Z,20.40
2023-04-28T11:30:19.458Z,20.42
2023-04-28T11:32:49.902Z,20.43
2023-04-28T11:35:17.002Z,20.66
2023-04-28T11:37:44.246Z,20.40
2023-04-28T11:40:13.512Z,20.36
2023-04-28T11:42:47.641Z,20.59
2023-04-28T11:45:14.614Z,20.62
2023-04-28T11:47:41.730Z,20.80
2023-04-28T11:50:09.165Z,20.95
2023-04-28T11:52:36.149Z,20.80
2023-04-28T11:55:03.318Z,20.60
2023-04-28T11:57:31.799Z,20.85
2023-04-28T12:00:13.144Z,20.89
2023-04-28T12:02:40.307Z,20.95
2023-04-28T12:05:08.244Z,21.09
2023-04-28T12:07:40.243Z,21.27
2023-04-28T12:10:12.123Z,21.44
2023-04-28T12:12:51.139Z,21.40
2023-04-28T12:15:21.028Z,21.33
2023-04-28T12:17:49.224Z,21.16
2023-04-28T12:20:35.414Z,20.97
2023-04-28T12:23:03.037Z,21.31
2023-04-28T12:25:30.464Z,21.51
2023-04-28T12:28:02.999Z,21.65
2023-04-28T12:30:31.183Z,21.81
2023-04-28T12:32:58.514Z,21.68
2023-04-28T12:35:26.638Z,21.59
2023-04-28T12:37:56.143Z,21.41
2023-04-28T12:40:24.584Z,21.43
2023-04-28T12:42:51.729Z,21.47
2023-04-28T12:45:20.128Z,21.50
2023-04-28T12:47:48.280Z,21.38
2023-04-28T12:50:15.382Z,21.66
2023-04-28T12:52:42.491Z,21.88
2023-04-28T12:55:10.260Z,22.00
2023-04-28T12:57:39.354Z,21.99
2023-04-28T13:00:08.294Z,22.02
2023-04-28T13:02:37.631Z,22.10
2023-04-28T13:05:05.433Z,21.95
2023-04-28T13:07:33.637Z,22.01
2023-04-28T13:10:00.580Z,22.12
2023-04-28T13:12:27.650Z,22.24
2023-04-28T13:14:54.587Z,22.29
2023-04-28T13:17:21.629Z,22.48
2023-04-28T13:19:50.008Z,22.42
2023-04-28T13:22:17.292Z,22.38
2023-04-28T13:24:44.357Z,22.24
2023-04-28T13:27:11.674Z,22.30
2023-04-28T13:29:38.662Z,21.82
2023-04-28T13:32:06.446Z,21.65
2023-04-28T13:34:33.680Z,21.58
2023-04-28T13:37:02.028Z,21.35
2023-04-28T13:39:29.023Z,21.25
2023-04-28T13:41:55.985Z,21.33
2023-04-28T13:44:23.157Z,21.55
2023-04-28T13:46:50.164Z,21.64
2023-04-28T13:49:17.158Z,22.03
2023-04-28T13:51:45.719Z,22.02
2023-04-28T13:54:14.294Z,21.46
2023-04-28T13:56:41.592Z,21.35
2023-04-28T13:59:08.569Z,21.17
2023-04-28T14:01:35.846Z,21.15
2023-04-28T14:04:03.425Z,21.12
2023-04-28T14:06:32.426Z,21.30
2023-04-28T14:09:01.270Z,21.43
2023-04-28T14:11:29.748Z,21.66
2023-04-28T14:13:56.639Z,21.90
2023-04-28T14:16:23.647Z,22.09
2023-04-28T14:18:50.786Z,22.16
2023-04-28T14:21:17.748Z,22.03
2023-04-28T14:23:47.805Z,21.58
2023-04-28T14:26:14.862Z,21.69
2023-04-28T14:28:43.343Z,21.89
2023-04-28T14:31:10.509Z,21.91
2023-04-28T14:33:37.521Z,22.17
2023-04-28T14:36:05.225Z,22.26
2023-04-28T14:38:32.165Z,22.57
2023-04-28T14:40:59.306Z,22.70
2023-04-28T14:43:26.465Z,22.59
2023-04-28T14:45:55.074Z,22.26
2023-04-28T14:48:22.312Z,22.32
2023-04-28T14:50:49.399Z,22.16
2023-04-28T14:53:16.383Z,21.79
2023-04-28T14:55:43.727Z,21.79
2023-04-28T14:58:10.755Z,21.97
2023-04-28T15:00:37.704Z,22.04
2023-04-28T15:03:06.233Z,21.59
2023-04-28T15:05:33.628Z,21.49
2023-04-28T15:08:00.682Z,21.59
2023-04-28T15:10:33.062Z,21.48
2023-04-28T15:13:00.368Z,21.40
2023-04-28T15:15:27.602Z,21.40
2023-04-28T15:18:00.642Z,21.15
2023-04-28T15:20:30.617Z,21.18
2023-04-28T15:22:57.649Z,21.17
2023-04-28T15:25:25.014Z,21.39
2023-04-28T15:27:51.999Z,21.42
2023-04-28T15:30:19.608Z,21.22
2023-04-28T15:32:47.103Z,21.23
2023-04-28T15:35:14.175Z,21.37
2023-04-28T15:37:44.606Z,21.59
2023-04-28T15:40:13.180Z,21.77
2023-04-28T15:42:42.429Z,21.72
2023-04-28T15:45:10.543Z,21.68
2023-04-28T15:47:39.039Z,21.48
2023-04-28T15:50:09.021Z,21.52
2023-04-28T15:52:38.451Z,21.55
2023-04-28T15:55:08.494Z,21.59
2023-04-28T15:57:36.815Z,21.32
2023-04-28T16:00:04.470Z,21.14
2023-04-28T16:02:35.093Z,21.17
2023-04-28T16:05:05.279Z,21.27
2023-04-28T16:07:38.107Z,21.30
2023-04-28T16:10:08.633Z,21.27
2023-04-28T16:12:35.902Z,21.28
2023-04-28T16:15:03.985Z,21.31
2023-04-28T16:17:31.241Z,20.97
2023-04-28T16:19:58.275Z,20.60
2023-04-28T16:22:25.811Z,20.38
2023-04-28T16:24:53.867Z,20.26
2023-04-28T16:27:22.433Z,20.23
2023-04-28T16:29:50.041Z,20.20
2023-04-28T16:32:17.182Z,19.81
2023-04-28T16:34:44.266Z,19.41
2023-04-28T16:37:11.807Z,19.17
2023-04-28T16:39:38.694Z,19.16
2023-04-28T16:42:06.141Z,19.17
2023-04-28T16:44:34.809Z,19.24
2023-04-28T16:47:01.978Z,19.27
2023-04-28T16:49:28.959Z,19.31
2023-04-28T16:51:56.816Z,19.27
2023-04-28T16:54:23.908Z,19.11
2023-04-28T16:56:50.987Z,18.57
2023-04-28T16:59:18.785Z,18.22
2023-04-28T17:01:47.241Z,17.90
2023-04-28T17:04:14.968Z,17.54
2023-04-28T17:06:42.065Z,17.26
2023-04-28T17:09:09.951Z,17.03
2023-04-28T17:11:37.782Z,16.76
2023-04-28T17:14:05.068Z,16.17
2023-04-28T17:16:32.823Z,15.71
2023-04-28T17:19:01.785Z,15.39
2023-04-28T17:21:29.175Z,15.09
2023-04-28T17:23:57.489Z,14.79
2023-04-28T17:26:24.647Z,14.55
2023-04-28T17:28:51.765Z,14.23
2023-04-28T17:31:18.805Z,13.88
2023-04-28T17:33:46.523Z,13.69
2023-04-28T17:36:14.919Z,13.52
2023-04-28T17:38:41.879Z,13.38
2023-04-28T17:41:09.031Z,13.18
2023-04-28T17:43:36.741Z,13.02
2023-04-28T17:46:04.052Z,12.85
2023-04-28T17:48:31.290Z,12.60
2023-04-28T17:50:58.265Z,12.53
2023-04-28T17:53:27.018Z,12.31
2023-04-28T17:55:54.001Z,12.11
2023-04-28T17:58:20.930Z,12.03
2023-04-28T18:00:48.029Z,11.89
2023-04-28T18:03:15.223Z,11.84
2023-04-28T18:05:42.243Z,11.78
2023-04-28T18:08:09.465Z,11.73
2023-04-28T18:10:37.962Z,11.57
2023-04-28T18:13:06.307Z,11.56
2023-04-28T18:15:33.315Z,11.45
2023-04-28T18:18:00.474Z,11.49
2023-04-28T18:20:27.603Z,11.33
2023-04-28T18:22:54.652Z,11.33
2023-04-28T18:25:21.933Z,11.34
2023-04-28T18:27:50.410Z,11.29
2023-04-28T18:30:17.090Z,11.32
2023-04-28T18:32:44.035Z,11.10
2023-04-28T18:35:11.349Z,10.91
2023-04-28T18:37:38.267Z,10.77
2023-04-28T18:40:05.569Z,10.59
2023-04-28T18:42:33.223Z,10.45
2023-04-28T18:45:01.686Z,10.29
2023-04-28T18:47:28.825Z,10.16
2023-04-28T18:49:56.406Z,10.09
2023-04-28T18:52:23.421Z,10.09
2023-04-28T18:54:50.402Z,9.99
2023-04-28T18:57:17.337Z,9.75
2023-04-28T18:59:44.284Z,9.62
2023-04-28T19:02:12.964Z,9.60
2023-04-28T19:04:42.285Z,9.50
2023-04-28T19:07:09.403Z,9.21
2023-04-28T19:09:36.455Z,9.14
2023-04-28T19:12:03.441Z,9.19
2023-04-28T19:14:30.558Z,9.18
2023-04-28T19:16:57.513Z,9.14
2023-04-28T19:19:25.926Z,8.99
2023-04-28T19:21:52.872Z,8.94
2023-04-28T19:24:19.846Z,8.91
2023-04-28T19:26:46.969Z,8.86
2023-04-28T19:29:17.186Z,8.80
2023-04-28T19:31:44.736Z,8.65
2023-04-28T19:34:11.788Z,8.49
2023-04-28T19:36:40.106Z,8.40
2023-04-28T19:39:08.389Z,8.18
2023-04-28T19:41:35.952Z,8.14
2023-04-28T19:44:03.454Z,8.09
2023-04-28T19:46:30.517Z,8.08
2023-04-28T19:48:57.586Z,8.08
2023-04-28T19:51:24.649Z,8.02
2023-04-28T19:53:53.644Z,7.95
2023-04-28T19:56:20.591Z,7.84
2023-04-28T19:58:48.577Z,7.70
2023-04-28T20:01:15.664Z,7.54
2023-04-28T20:03:43.220Z,7.53
2023-04-28T20:06:15.356Z,7.51
2023-04-28T20:08:42.386Z,7.51
2023-04-28T20:11:11.370Z,7.45
2023-04-28T20:13:38.357Z,7.39
2023-04-28T20:16:07.111Z,7.47
2023-04-28T20:18:35.557Z,7.44
2023-04-28T20:21:03.440Z,7.40
2023-04-28T20:23:30.528Z,7.28
2023-04-28T20:25:57.945Z,7.24
2023-04-28T20:28:26.297Z,7.18
2023-04-28T20:30:53.480Z,7.19
2023-04-28T20:33:20.435Z,7.24
2023-04-28T20:35:47.371Z,7.19
2023-04-28T20:38:14.602Z,7.10
2023-04-28T20:40:41.580Z,7.00
2023-04-28T20:43:08.650Z,7.01
2023-04-28T20:45:37.038Z,6.95
2023-04-28T20:48:04.302Z,6.85
2023-04-28T20:50:33.424Z,6.80
2023-04-28T20:53:00.605Z,6.76
2023-04-28T20:55:28.388Z,6.81
2023-04-28T20:57:56.125Z,6.73
2023-04-28T21:00:23.416Z,6.76
2023-04-28T21:02:51.989Z,6.69
2023-04-28T21:05:20.672Z,6.58
2023-04-28T21:07:47.751Z,6.52
2023-04-28T21:10:14.925Z,6.52
2023-04-28T21:12:41.893Z,6.56
2023-04-28T21:15:09.248Z,6.42
2023-04-28T21:17:36.146Z,6.36
2023-04-28T21:20:05.258Z,6.33
2023-04-28T21:22:32.343Z,6.15
2023-04-28T21:24:59.320Z,6.09
2023-04-28T21:27:26.498Z,6.02
2023-04-28T21:29:53.447Z,6.01
2023-04-28T21:32:20.626Z,6.06
2023-04-28T21:34:48.441Z,6.11
2023-04-28T21:37:16.881Z,6.11
2023-04-28T21:39:44.505Z,6.11
2023-04-28T21:42:11.597Z,6.15
2023-04-28T21:44:38.584Z,6.09
2023-04-28T21:47:06.924Z,6.05
2023-04-28T21:49:33.862Z,6.12
2023-04-28T21:52:00.777Z,6.15
2023-04-28T21:54:29.064Z,6.08
2023-04-28T21:56:56.023Z,6.01
2023-04-28T21:59:23.000Z,6.05
2023-04-28T22:01:50.170Z,6.03
2023-04-28T22:04:17.820Z,6.02
2023-04-28T22:06:45.292Z,6.06
2023-04-28T22:09:12.259Z,6.00
2023-04-28T22:11:40.735Z,5.87
2023-04-28T22:14:07.839Z,5.84
2023-04-28T22:16:34.755Z,5.74
2023-04-28T22:19:02.718Z,5.73
2023-04-28T22:21:30.288Z,5.74
2023-04-28T22:23:57.416Z,5.76
2023-04-28T22:26:30.367Z,5.71
2023-04-28T22:28:58.733Z,5.66
2023-04-28T22:31:25.860Z,5.57
2023-04-28T22:33:52.855Z,5.55
2023-04-28T22:36:20.945Z,5.57
2023-04-28T22:38:48.060Z,5.56
2023-04-28T22:41:15.024Z,5.49
2023-04-28T22:43:42.811Z,5.39
2023-04-28T22:46:11.226Z,5.34
2023-04-28T22:48:38.197Z,5.40
2023-04-28T22:51:05.178Z,5.50
2023-04-28T22:53:32.144Z,5.52
2023-04-28T22:56:02.911Z,5.55
2023-04-28T22:58:29.939Z,5.46
2023-04-28T23:01:00.474Z,5.43
2023-04-28T23:03:28.988Z,5.50
2023-04-28T23:05:56.112Z,5.50
2023-04-28T23:08:23.474Z,5.44
2023-04-28T23:10:50.492Z,5.37
2023-04-28T23:13:17.438Z,5.44
2023-04-28T23:15:44.376Z,5.50
2023-04-28T23:18:11.566Z,5.46
2023-04-28T23:20:39.863Z,5.38
2023-04-28T23:23:06.930Z,5.38
2023-04-28T23:25:33.866Z,5.38
2023-04-28T23:28:00.815Z,5.38
2023-04-28T23:30:27.921Z,5.34
2023-04-28T23:32:54.854Z,5.32
2023-04-28T23:35:21.813Z,5.39
2023-04-28T23:37:50.153Z,5.40
2023-04-28T23:40:17.230Z,5.33
2023-04-28T23:42:44.220Z,5.37
2023-04-28T23:45:11.664Z,5.33
2023-04-28T23:47:38.869Z,5.37
2023-04-28T23:50:07.051Z,5.24
2023-04-28T23:52:34.176Z,5.15
2023-04-28T23:55:02.694Z,5.12
2023-04-28T23:57:29.701Z,5.08
2023-04-28T23:59:56.729Z,5.03
